Terminal Aerodrome Forecast
Issued by NWS Portland, OR

Home | Current Version | Previous Version | Text Only | Print | Product List | Glossary On
Versions: 1 2 3 4 5 6 7 8 9 10 11 12 13 14 15 16 17 18 19 20 21 22
000
FTUS46 KPQR 201134
TAFEUG
TAF
KEUG 201134Z 2012/2112 19011KT P6SM -SHRA SCT017 BKN030 OVC050
     FM201600 20010G18KT P6SM -SHRA SCT025 OVC045
     FM201900 20012G23KT P6SM -SHRA SCT030 BKN050
     FM202300 22006KT P6SM -SHRA OVC045
     FM210300 19005KT P6SM BKN060 OVC200
     FM210600 18008KT P6SM -RA OVC060=

USA.gov is the U.S. government's official web portal to all federal, state and local government web resources and services.